• Join FlightAware (Why Join?)
  • Login
  • US Flag 
06:03PM EDT


 

Airport Tracker/Info


-or-


 

Live Flight TrackerFlight Track Log ✈ VH-HTV ✈ 27-May-2013 ✈ YMOH - YMOH

Flight Track Log - Related Links

Times and Time Zones

All times are in EDT time to prevent confusion due to time zone crossing. See the VH-HTV flight status page for this flight to view local times or setup timezone preferences in your user account.

Time Position Orientation Groundspeed Altitude Reporting Facility
EDT Latitude Longitude Course Direction KTS MPH feet Rate Location/Type
08:35PM -27.8400 153.3024 144° Southeast 96 110 1,400  Level Aus ATC (RADAR)
08:35PM -27.8491 153.3098 144° Southeast 95 109 1,500  Climbing Aus ATC (RADAR)
08:36PM -27.8613 153.3208 141° Southeast 96 110 1,400 -120 Descending Aus ATC (RADAR)
08:37PM -27.8804 153.3354 146° Southeast 98 113 1,400  Level Aus ATC (RADAR)
08:37PM -27.8932 153.3453 146° Southeast 95 109 1,400  Level Aus ATC (RADAR)
08:39PM -27.9200 153.3655 146° Southeast 98 113 1,400  Level Aus ATC (RADAR)
08:39PM -27.9290 153.3723 146° Southeast 93 107 1,400  Level Aus ATC (RADAR)
08:40PM -27.9424 153.3802 152° Southeast 92 106 1,400  Level Aus ATC (RADAR)
08:40PM -27.9601 153.3927 148° Southeast 98 113 1,400 -120 Level Aus ATC (RADAR)
08:41PM -27.9737 153.4015 150° Southeast 96 110 1,300  Descending Aus ATC (RADAR)
08:42PM -27.9925 153.4153 147° Southeast 95 109 1,400 120 Climbing Aus ATC (RADAR)
08:42PM -28.0021 153.4231 144° Southeast 99 114 1,500 -720 Climbing Aus ATC (RADAR)
08:43PM -28.0317 153.4401 153° Southeast 108 124 300 -660 Descending Aus ATC (RADAR)
08:44PM -28.0433 153.4429 168° South 89 102 400 60 Climbing Aus ATC (RADAR)
08:44PM -28.0532 153.4449 170° South 88 101 400  Level Aus ATC (RADAR)
08:45PM -28.0676 153.4488 167° South 91 105 400 -120 Level Aus ATC (RADAR)
08:45PM -28.0804 153.4541 160° South 82 94 300 -120 Descending Aus ATC (RADAR)
08:46PM -28.0853 153.4564 158° South 27 31 300 60 Level Aus ATC (RADAR)
08:47PM -28.0854 153.4576 92° East 7 8 400 60 Climbing Aus ATC (RADAR)
08:47PM -28.0856 153.4579 139° Southeast 4 5 400 -120 Level Aus ATC (RADAR)
08:48PM -28.0859 153.4584 117° Southeast 2 2 300  Descending Aus ATC (RADAR)
08:49PM -28.0861 153.4587 127° Southeast 3 3 400 120 Climbing Aus ATC (RADAR)
08:49PM -28.0861 153.4590 86° East 4 5 400  Level Aus ATC (RADAR)
08:50PM -28.0812 153.4531 313° West 49 56 400 -120 Level Aus ATC (RADAR)
08:51PM -28.0691 153.4478 339° North 48 55 300 -120 Descending Aus ATC (RADAR)
08:51PM -28.0687 153.4476 325° Northwest 18 21 300  Level Aus ATC (RADAR)
08:52PM -28.0689 153.4476 147° Southeast 2 2 300  Level Aus ATC (RADAR)
08:53PM -28.0689 153.4478 98° East 2 2 300  Level Aus ATC (RADAR)
08:54PM -28.0681 153.4482 21° North 3 3 400  Climbing Aus ATC (RADAR)
08:54PM -28.0681 153.4485 103° East 2 2 300 -120 Descending Aus ATC (RADAR)
08:55PM -28.0651 153.4473 341° North 25 29 300  Level Aus ATC (RADAR)
08:55PM -28.0571 153.4456 349° North 45 52 300  Level Aus ATC (RADAR)
08:56PM -28.0529 153.4427 330° Northwest 33 38 300 -120 Level Aus ATC (RADAR)
08:57PM -28.0548 153.4443 144° Southeast 8 9 200 -120 Descending Aus ATC (RADAR)
08:57PM -28.0555 153.4442 187° South 6 7 200  Level Aus ATC (RADAR)
08:58PM -28.0556 153.4445 103° East 3 3 200  Level Aus ATC (RADAR)
08:59PM -28.0499 153.4434 350° North 21 24 200  Level Aus ATC (RADAR)
08:59PM -28.0508 153.4426 218° Southwest 7 8 200  Level Aus ATC (RADAR)
09:00PM -28.0472 153.4413 343° North 29 33 200  Level Aus ATC (RADAR)
09:01PM -28.0457 153.4416 11° North 19 22 200  Level Aus ATC (RADAR)
09:01PM -28.0458 153.4412 258° West 4 5 200  Level Aus ATC (RADAR)
09:02PM -28.0410 153.4402 350° North 36 41 200 60 Level Aus ATC (RADAR)
09:02PM -28.0375 153.4405 North 32 37 300 60 Climbing Aus ATC (RADAR)
09:03PM -28.0390 153.4421 137° Southeast 24 28 300 -60 Level Aus ATC (RADAR)
09:04PM -28.0328 153.4386 333° Northwest 13 15 200 60 Descending Aus ATC (RADAR)
09:05PM -28.0326 153.4392 76° East 6 7 400 60 Climbing Aus ATC (RADAR)
09:05PM -28.0325 153.4399 81° East 6 7 300  Descending Aus ATC (RADAR)
09:06PM -28.0157 153.4357 348° North 61 70 400  Climbing Aus ATC (RADAR)
09:07PM -28.0039 153.4344 354° North 71 82 300 -180 Descending Aus ATC (RADAR)
09:07PM -27.9979 153.4341 357° North 39 45 200 60 Descending Aus ATC (RADAR)
09:08PM -27.9899 153.4330 353° North 43 49 400  Climbing Aus ATC (RADAR)
09:09PM -27.9771 153.4324 358° North 24 28 300 -120 Descending Aus ATC (RADAR)
09:10PM -27.9776 153.4319 222° Southwest 11 13 200 -120 Descending Aus ATC (RADAR)
09:10PM -27.9784 153.4324 154° Southeast 6 7 200  Level Aus ATC (RADAR)
09:11PM -27.9786 153.4326 141° Southeast 3 3 200  Level Aus ATC (RADAR)
09:12PM -27.9785 153.4327 62° Northeast 2 2 200  Level Aus ATC (RADAR)
09:13PM -27.9792 153.4333 139° Southeast 8 9 200  Level Aus ATC (RADAR)
09:13PM -27.9793 153.4329 256° West 4 5 200  Level Aus ATC (RADAR)
09:15PM -27.9774 153.4329 North 24 28 200  Level Aus ATC (RADAR)
09:15PM -27.9745 153.4321 345° North 34 39 200  Level Aus ATC (RADAR)
09:15PM -27.9683 153.4323 North 39 45 200  Level Aus ATC (RADAR)
09:16PM -27.9613 153.4322 359° North 31 36 200  Level Aus ATC (RADAR)
09:17PM -27.9554 153.4308 348° North 37 43 200 120 Level Aus ATC (RADAR)
09:18PM -27.9429 153.4313 North 55 63 400 240 Climbing Aus ATC (RADAR)
09:18PM -27.9392 153.4321 11° North 46 53 500 240 Climbing Aus ATC (RADAR)
09:19PM -27.9310 153.4262 328° Northwest 29 33 800 60 Climbing Aus ATC (RADAR)
09:20PM -27.9345 153.4323 123° Southeast 44 51 700 -120 Descending Aus ATC (RADAR)
09:20PM -27.9376 153.4317 188° South 44 51 700 -120 Level Aus ATC (RADAR)
09:21PM -27.9417 153.4289 211° Southwest 23 26 600 -120 Descending Aus ATC (RADAR)
09:21PM -27.9421 153.4281 247° West 17 20 600  Level Aus ATC (RADAR)
09:24PM -27.8829 153.3673 318° Northwest -240 Descending Aus ATC (Calculated)
09:28PM -27.7792 153.2611 318° Northwest  Level Aus ATC (Calculated)
09:37PM -27.5847 153.0625 318° Northwest  Level Aus ATC (Calculated)
09:41PM -27.5263 153.0030 200° South  Level Aus ATC (Calculated)
09:41PM -27.5263 153.0030 200° South  Level Aus ATC (Calculated)